Time;durP1;ratioP1;P1;durP2;ratioP2;P2;SDS_P1;SDS_P2;PMS_P1;PMS_P2;Temp;Humidity;BMP_temperature;BMP_pressure;BME280_temperature;BME280_humidity;BME280_pressure;Samples;Min_cycle;Max_cycle;Signal;HPM_P1;HPM_P2
2023/08/07 00:00:55;;;;;;;2.03;1.23;;;;;;;;;;5076455;28;20659;-86
2023/08/07 00:03:26;;;;;;;2.30;1.30;;;;;;;;;;5075947;28;20225;-86
2023/08/07 00:05:53;;;;;;;1.40;1.30;;;;;;;;;;5069751;28;20205;-86
2023/08/07 00:08:20;;;;;;;2.00;1.40;;;;;;;;;;5076544;28;20217;-86
2023/08/07 00:10:48;;;;;;;3.33;1.50;;;;;;;;;;5077168;28;20213;-86
2023/08/07 00:13:15;;;;;;;1.93;1.10;;;;;;;;;;5076831;28;20283;-86
2023/08/07 00:15:42;;;;;;;1.67;1.30;;;;;;;;;;5076660;28;20229;-87
2023/08/07 00:18:09;;;;;;;2.73;1.40;;;;;;;;;;5076795;28;20229;-86
2023/08/07 00:20:37;;;;;;;2.87;1.80;;;;;;;;;;5072916;28;20225;-86
2023/08/07 00:23:04;;;;;;;2.53;1.27;;;;;;;;;;5076535;28;20236;-86
2023/08/07 00:25:31;;;;;;;7.90;1.70;;;;;;;;;;5076482;28;20738;-86
2023/08/07 00:27:59;;;;;;;2.23;1.33;;;;;;;;;;5075576;28;20316;-86
2023/08/07 00:30:26;;;;;;;3.03;1.80;;;;;;;;;;5076880;28;20209;-86
2023/08/07 00:32:53;;;;;;;3.13;1.40;;;;;;;;;;5076000;28;20231;-86
2023/08/07 00:35:20;;;;;;;4.93;1.90;;;;;;;;;;5076751;28;20312;-85
2023/08/07 00:37:48;;;;;;;7.27;2.03;;;;;;;;;;5075866;28;20240;-86
2023/08/07 00:40:15;;;;;;;1.90;1.37;;;;;;;;;;5076985;28;20205;-86
2023/08/07 00:42:42;;;;;;;2.87;1.13;;;;;;;;;;5075691;28;20233;-86
2023/08/07 00:45:10;;;;;;;1.87;1.30;;;;;;;;;;5076468;28;20228;-86
2023/08/07 00:47:38;;;;;;;1.97;1.30;;;;;;;;;;5075897;28;20237;-85
2023/08/07 00:50:05;;;;;;;3.17;1.50;;;;;;;;;;5076758;28;20483;-85
2023/08/07 00:52:33;;;;;;;2.57;1.50;;;;;;;;;;5076509;28;20228;-84
2023/08/07 00:55:02;;;;;;;1.97;1.40;;;;;;;;;;5076622;28;20236;-85
2023/08/07 00:57:29;;;;;;;2.27;1.43;;;;;;;;;;5075576;28;20220;-85
2023/08/07 00:59:56;;;;;;;3.70;2.03;;;;;;;;;;5074798;28;20224;-85
2023/08/07 01:02:23;;;;;;;1.70;1.60;;;;;;;;;;5070775;28;20706;-87
2023/08/07 01:04:51;;;;;;;3.00;1.60;;;;;;;;;;5077039;28;20233;-86
2023/08/07 01:07:18;;;;;;;3.97;1.70;;;;;;;;;;5075040;28;20244;-86
2023/08/07 01:09:45;;;;;;;5.23;1.70;;;;;;;;;;5076145;28;20576;-86
2023/08/07 01:12:16;;;;;;;3.87;2.23;;;;;;;;;;5075664;28;20233;-86
2023/08/07 01:14:49;;;;;;;4.10;1.80;;;;;;;;;;5075783;28;20225;-86
2023/08/07 01:17:17;;;;;;;2.83;1.73;;;;;;;;;;5075676;28;20228;-86
2023/08/07 01:19:44;;;;;;;2.23;1.50;;;;;;;;;;5075633;28;20225;-86
2023/08/07 01:22:13;;;;;;;2.43;1.70;;;;;;;;;;5071395;28;20221;-86
2023/08/07 01:24:41;;;;;;;3.50;2.23;;;;;;;;;;5075517;28;20231;-86
2023/08/07 01:27:25;;;;;;;2.73;1.90;;;;;;;;;;5075283;28;20742;-86
2023/08/07 01:29:56;;;;;;;3.97;2.00;;;;;;;;;;5075789;28;20197;-86
2023/08/07 01:32:26;;;;;;;3.97;2.00;;;;;;;;;;5075428;28;20224;-86
2023/08/07 01:34:54;;;;;;;4.63;2.37;;;;;;;;;;5075268;28;20225;-86
2023/08/07 01:37:24;;;;;;;2.83;2.07;;;;;;;;;;5075371;28;20237;-86
2023/08/07 01:39:53;;;;;;;7.90;3.50;;;;;;;;;;5075376;28;20308;-86
2023/08/07 01:42:20;;;;;;;3.00;1.80;;;;;;;;;;5075071;28;20222;-86
2023/08/07 01:44:47;;;;;;;4.80;2.33;;;;;;;;;;5075161;28;20714;-85
2023/08/07 01:47:14;;;;;;;3.07;1.80;;;;;;;;;;5075449;28;20236;-86
2023/08/07 01:49:41;;;;;;;3.43;2.93;;;;;;;;;;5075743;28;20202;-86
2023/08/07 01:52:09;;;;;;;2.60;1.80;;;;;;;;;;5075210;28;20355;-87
2023/08/07 01:54:38;;;;;;;2.60;1.70;;;;;;;;;;5075551;28;20324;-86
2023/08/07 01:57:05;;;;;;;5.87;2.73;;;;;;;;;;5075036;28;20594;-85
2023/08/07 01:59:32;;;;;;;6.87;2.30;;;;;;;;;;5075371;28;20220;-86
2023/08/07 02:01:59;;;;;;;4.80;2.50;;;;;;;;;;5075055;28;20312;-85
2023/08/07 02:04:26;;;;;;;5.07;2.67;;;;;;;;;;5075327;28;20212;-86
2023/08/07 02:06:53;;;;;;;4.17;1.93;;;;;;;;;;5074866;28;20233;-86
2023/08/07 02:09:21;;;;;;;6.13;1.90;;;;;;;;;;5075678;28;20209;-86
2023/08/07 02:11:50;;;;;;;4.93;2.20;;;;;;;;;;5074421;28;20237;-87
2023/08/07 02:14:17;;;;;;;4.27;2.10;;;;;;;;;;5074176;28;20228;-87
2023/08/07 02:16:46;;;;;;;3.80;2.37;;;;;;;;;;5073460;28;20316;-86
2023/08/07 02:19:13;;;;;;;5.80;2.17;;;;;;;;;;5073852;28;20218;-87
2023/08/07 02:21:40;;;;;;;4.07;2.37;;;;;;;;;;5070656;28;20257;-87
2023/08/07 02:24:07;;;;;;;3.57;2.63;;;;;;;;;;5075253;28;20229;-87
2023/08/07 02:26:34;;;;;;;4.47;2.50;;;;;;;;;;5074764;28;20229;-87
2023/08/07 02:29:03;;;;;;;8.00;3.10;;;;;;;;;;5075396;28;20197;-87
2023/08/07 02:31:30;;;;;;;3.53;2.17;;;;;;;;;;5074776;28;20233;-87
2023/08/07 02:33:57;;;;;;;4.63;2.57;;;;;;;;;;5075080;28;20221;-86
2023/08/07 02:36:24;;;;;;;3.60;2.30;;;;;;;;;;5074391;28;20206;-86
2023/08/07 02:38:52;;;;;;;3.13;2.30;;;;;;;;;;5074890;28;20228;-86
2023/08/07 02:41:19;;;;;;;3.70;2.13;;;;;;;;;;5074013;28;20212;-86
2023/08/07 02:43:46;;;;;;;3.27;2.27;;;;;;;;;;5074423;28;20225;-86
2023/08/07 02:46:14;;;;;;;7.30;2.37;;;;;;;;;;5074245;28;20205;-86
2023/08/07 02:48:41;;;;;;;6.70;2.20;;;;;;;;;;5074692;28;20209;-85
2023/08/07 02:51:08;;;;;;;4.77;2.60;;;;;;;;;;5074143;28;20665;-86
2023/08/07 02:53:35;;;;;;;5.80;2.30;;;;;;;;;;5074370;28;20205;-86
2023/08/07 02:56:02;;;;;;;6.50;2.57;;;;;;;;;;5074555;28;20205;-86
2023/08/07 02:58:29;;;;;;;5.53;2.20;;;;;;;;;;5074144;28;20225;-86
2023/08/07 03:00:56;;;;;;;5.03;2.40;;;;;;;;;;5074694;28;20225;-86
2023/08/07 03:03:25;;;;;;;4.13;2.10;;;;;;;;;;5073866;28;20225;-85
2023/08/07 03:05:52;;;;;;;4.70;2.40;;;;;;;;;;5074387;28;20212;-86
2023/08/07 03:08:19;;;;;;;5.83;2.33;;;;;;;;;;5073907;28;20225;-87
2023/08/07 03:10:51;;;;;;;5.57;2.20;;;;;;;;;;5074492;28;20198;-87
2023/08/07 03:13:18;;;;;;;6.50;2.60;;;;;;;;;;5072286;28;20221;-86
2023/08/07 03:15:45;;;;;;;7.00;2.50;;;;;;;;;;5061424;28;20213;-86
2023/08/07 03:18:12;;;;;;;3.97;2.40;;;;;;;;;;5072347;28;20225;-85
2023/08/07 03:20:41;;;;;;;6.00;2.43;;;;;;;;;;5073558;28;20228;-86
2023/08/07 03:23:08;;;;;;;3.70;2.90;;;;;;;;;;5073467;28;20264;-86
2023/08/07 03:25:35;;;;;;;9.20;2.70;;;;;;;;;;5073800;28;20217;-86
2023/08/07 03:28:02;;;;;;;3.43;2.37;;;;;;;;;;5073560;28;20225;-85
2023/08/07 03:30:29;;;;;;;8.67;2.80;;;;;;;;;;5069808;28;20226;-86
2023/08/07 03:32:57;;;;;;;3.10;2.10;;;;;;;;;;5073684;28;20225;-86
2023/08/07 03:35:24;;;;;;;4.90;2.20;;;;;;;;;;5073604;28;20221;-85
2023/08/07 03:37:52;;;;;;;4.67;3.30;;;;;;;;;;5073205;28;20713;-87
2023/08/07 03:40:19;;;;;;;3.47;2.27;;;;;;;;;;5074226;28;20221;-87
2023/08/07 03:42:46;;;;;;;7.93;2.30;;;;;;;;;;5073203;28;20241;-86
2023/08/07 03:45:13;;;;;;;5.73;2.30;;;;;;;;;;5074060;28;20237;-87
2023/08/07 03:47:40;;;;;;;6.50;2.30;;;;;;;;;;5069067;28;20233;-86
2023/08/07 03:50:08;;;;;;;5.17;2.40;;;;;;;;;;5086188;28;20284;-87
2023/08/07 03:52:38;;;;;;;4.97;2.30;;;;;;;;;;5074126;28;20232;-86
2023/08/07 03:55:07;;;;;;;7.10;2.53;;;;;;;;;;5073713;28;20229;-85
2023/08/07 03:57:34;;;;;;;4.03;2.20;;;;;;;;;;5073451;28;20599;-86
2023/08/07 04:00:01;;;;;;;5.03;2.33;;;;;;;;;;5073299;28;20213;-87
2023/08/07 04:02:29;;;;;;;5.00;2.20;;;;;;;;;;5073415;28;20232;-86
2023/08/07 04:04:56;;;;;;;6.70;2.47;;;;;;;;;;5074519;28;20229;-86
2023/08/07 04:07:23;;;;;;;5.30;2.87;;;;;;;;;;5075988;28;20220;-86
2023/08/07 04:09:50;;;;;;;5.53;2.87;;;;;;;;;;5073878;28;20216;-86
2023/08/07 04:12:18;;;;;;;5.57;2.23;;;;;;;;;;5061666;28;20221;-87
2023/08/07 04:14:45;;;;;;;6.50;2.53;;;;;;;;;;5070305;28;20507;-86
2023/08/07 04:17:12;;;;;;;5.23;2.57;;;;;;;;;;5072021;28;20236;-87
2023/08/07 04:19:39;;;;;;;2.83;2.00;;;;;;;;;;5071691;28;20217;-87
2023/08/07 04:22:06;;;;;;;3.97;2.20;;;;;;;;;;5064304;28;20225;-88
2023/08/07 04:24:37;;;;;;;3.90;2.70;;;;;;;;;;5071981;28;20629;-87
2023/08/07 04:27:04;;;;;;;5.20;2.10;;;;;;;;;;5072400;28;20263;-87
2023/08/07 04:29:32;;;;;;;6.10;2.47;;;;;;;;;;5073742;28;20197;-88
2023/08/07 04:31:59;;;;;;;6.00;2.43;;;;;;;;;;5072087;28;20260;-88
2023/08/07 04:34:26;;;;;;;10.57;2.70;;;;;;;;;;5071174;28;20214;-86
2023/08/07 04:36:56;;;;;;;3.67;2.40;;;;;;;;;;5072667;28;20240;-85
2023/08/07 04:39:23;;;;;;;4.70;2.60;;;;;;;;;;5073344;28;20273;-85
2023/08/07 04:41:50;;;;;;;3.23;2.33;;;;;;;;;;5072508;28;20237;-86
2023/08/07 04:44:17;;;;;;;6.83;2.47;;;;;;;;;;5075967;28;20291;-86
2023/08/07 04:46:46;;;;;;;3.47;2.10;;;;;;;;;;5076157;28;20237;-87
2023/08/07 04:49:13;;;;;;;3.40;1.90;;;;;;;;;;5076864;28;20201;-86
2023/08/07 04:51:40;;;;;;;7.90;2.50;;;;;;;;;;5076094;28;20260;-87
2023/08/07 04:54:08;;;;;;;4.13;2.57;;;;;;;;;;5075856;28;20252;-84
2023/08/07 04:56:35;;;;;;;5.20;2.50;;;;;;;;;;5075210;28;20240;-84
2023/08/07 04:59:03;;;;;;;6.90;2.57;;;;;;;;;;5075641;28;20651;-84
2023/08/07 05:01:30;;;;;;;4.40;2.20;;;;;;;;;;5075334;28;20335;-84
2023/08/07 05:03:59;;;;;;;4.30;2.80;;;;;;;;;;5074242;28;20229;-83
2023/08/07 05:06:26;;;;;;;4.60;2.40;;;;;;;;;;5074281;28;20306;-84
2023/08/07 05:08:53;;;;;;;4.07;2.40;;;;;;;;;;5074309;28;20213;-84
2023/08/07 05:11:20;;;;;;;5.87;2.53;;;;;;;;;;5075650;28;20185;-86
2023/08/07 05:13:47;;;;;;;5.17;2.33;;;;;;;;;;5075993;28;20232;-86
2023/08/07 05:16:14;;;;;;;4.47;2.40;;;;;;;;;;5075482;28;20201;-86
2023/08/07 05:18:43;;;;;;;6.07;2.03;;;;;;;;;;5075245;28;20202;-85
2023/08/07 05:21:11;;;;;;;5.10;2.60;;;;;;;;;;5074189;28;20225;-86
2023/08/07 05:23:38;;;;;;;2.37;2.17;;;;;;;;;;5075509;28;20200;-87
2023/08/07 05:26:05;;;;;;;3.77;2.10;;;;;;;;;;5076288;28;20210;-86
2023/08/07 05:28:32;;;;;;;7.70;2.30;;;;;;;;;;5076128;28;20221;-86
2023/08/07 05:30:59;;;;;;;6.80;2.43;;;;;;;;;;5075922;28;20231;-87
2023/08/07 05:33:26;;;;;;;7.20;2.43;;;;;;;;;;5075371;28;20232;-86
2023/08/07 05:35:55;;;;;;;5.47;2.67;;;;;;;;;;5075787;28;20201;-87
2023/08/07 05:38:23;;;;;;;2.77;2.27;;;;;;;;;;5075461;28;20286;-88
2023/08/07 05:40:50;;;;;;;4.73;2.23;;;;;;;;;;5075720;28;20236;-87
2023/08/07 05:43:18;;;;;;;3.27;2.20;;;;;;;;;;5075232;28;20233;-86
2023/08/07 05:45:46;;;;;;;4.53;2.43;;;;;;;;;;5075551;28;20231;-86
2023/08/07 05:48:13;;;;;;;6.83;2.30;;;;;;;;;;5075501;28;20248;-85
2023/08/07 05:50:40;;;;;;;3.93;2.13;;;;;;;;;;5075701;28;20205;-85
2023/08/07 05:53:07;;;;;;;4.23;2.27;;;;;;;;;;5074573;28;20722;-86
2023/08/07 05:55:35;;;;;;;3.37;2.13;;;;;;;;;;5083859;28;20736;-86
2023/08/07 05:58:03;;;;;;;5.80;2.30;;;;;;;;;;5083869;28;20229;-86
2023/08/07 06:00:30;;;;;;;3.80;2.30;;;;;;;;;;5083361;28;20221;-86
2023/08/07 06:02:57;;;;;;;3.80;2.43;;;;;;;;;;5086031;28;20371;-86
2023/08/07 06:05:24;;;;;;;4.60;2.33;;;;;;;;;;5084179;28;20242;-86
2023/08/07 06:07:51;;;;;;;5.57;2.10;;;;;;;;;;5084339;28;20233;-88
2023/08/07 06:10:18;;;;;;;10.67;2.90;;;;;;;;;;5075390;28;20216;-88
2023/08/07 06:12:47;;;;;;;6.40;2.43;;;;;;;;;;5074996;28;20213;-89
2023/08/07 06:15:14;;;;;;;6.13;2.40;;;;;;;;;;5076195;28;20230;-88
2023/08/07 06:17:41;;;;;;;5.00;2.40;;;;;;;;;;5074724;28;20237;-90
2023/08/07 06:20:11;;;;;;;3.47;2.23;;;;;;;;;;5073812;28;20233;-88
2023/08/07 06:22:38;;;;;;;3.97;2.70;;;;;;;;;;5073497;28;20256;-88
2023/08/07 06:25:06;;;;;;;4.13;2.07;;;;;;;;;;5074329;28;20225;-88
2023/08/07 06:27:33;;;;;;;3.63;2.40;;;;;;;;;;5074865;28;20268;-88
2023/08/07 06:30:02;;;;;;;6.47;2.33;;;;;;;;;;5077392;28;20205;-89
2023/08/07 06:32:29;;;;;;;3.60;1.97;;;;;;;;;;5073101;28;20231;-88
2023/08/07 06:34:56;;;;;;;4.83;2.47;;;;;;;;;;5077115;28;20687;-88
2023/08/07 06:37:23;;;;;;;4.03;2.30;;;;;;;;;;5075551;28;20225;-88
2023/08/07 06:39:51;;;;;;;2.67;2.13;;;;;;;;;;5076374;28;20205;-88
2023/08/07 06:42:18;;;;;;;4.07;2.10;;;;;;;;;;5075050;28;20229;-87
2023/08/07 06:44:45;;;;;;;4.47;2.60;;;;;;;;;;5075277;28;20228;-88
2023/08/07 06:47:13;;;;;;;3.77;2.40;;;;;;;;;;5072897;28;20727;-86
2023/08/07 06:49:40;;;;;;;8.60;2.97;;;;;;;;;;5073929;28;20213;-85
2023/08/07 06:52:08;;;;;;;3.50;2.33;;;;;;;;;;5073377;28;20683;-85
2023/08/07 06:54:35;;;;;;;3.37;2.47;;;;;;;;;;5073422;28;20731;-86
2023/08/07 06:57:02;;;;;;;2.63;2.10;;;;;;;;;;5073645;28;20615;-87
2023/08/07 06:59:29;;;;;;;5.93;2.30;;;;;;;;;;5074785;28;20560;-85
2023/08/07 07:01:56;;;;;;;5.40;2.23;;;;;;;;;;5072731;28;20657;-87
2023/08/07 07:04:24;;;;;;;6.13;2.37;;;;;;;;;;5073554;28;20232;-87
2023/08/07 07:06:51;;;;;;;3.97;2.30;;;;;;;;;;5063978;28;20233;-87
2023/08/07 07:09:18;;;;;;;6.90;2.23;;;;;;;;;;5062017;28;20224;-87
2023/08/07 07:11:45;;;;;;;3.00;2.13;;;;;;;;;;5069027;28;20232;-88
2023/08/07 07:14:12;;;;;;;5.43;2.23;;;;;;;;;;5073455;28;20225;-87
2023/08/07 07:16:41;;;;;;;2.17;1.97;;;;;;;;;;5073265;28;20233;-87
2023/08/07 07:19:09;;;;;;;5.70;2.83;;;;;;;;;;5064150;28;20224;-87
2023/08/07 07:21:37;;;;;;;3.03;2.13;;;;;;;;;;5072311;28;20232;-87
2023/08/07 07:24:06;;;;;;;5.43;2.90;;;;;;;;;;5072123;28;20719;-86
2023/08/07 07:26:33;;;;;;;4.40;2.20;;;;;;;;;;5073046;28;20286;-88
2023/08/07 07:29:00;;;;;;;4.53;2.10;;;;;;;;;;5074140;28;20228;-87
2023/08/07 07:31:27;;;;;;;2.20;2.00;;;;;;;;;;5073759;28;20201;-87
2023/08/07 07:33:54;;;;;;;4.30;2.00;;;;;;;;;;5072982;28;20229;-86
2023/08/07 07:36:21;;;;;;;2.27;2.00;;;;;;;;;;5073015;28;20213;-87
2023/08/07 07:38:51;;;;;;;2.33;2.10;;;;;;;;;;5072900;28;20209;-87
2023/08/07 07:41:18;;;;;;;1.97;1.67;;;;;;;;;;5056718;28;20225;-88
2023/08/07 07:43:45;;;;;;;3.27;2.13;;;;;;;;;;5074118;28;20608;-87
2023/08/07 07:46:12;;;;;;;2.10;2.00;;;;;;;;;;5064561;28;20221;-87
2023/08/07 07:48:39;;;;;;;3.07;2.73;;;;;;;;;;5074399;28;20691;-88
2023/08/07 07:51:07;;;;;;;4.80;2.40;;;;;;;;;;5073700;28;20580;-87
2023/08/07 07:53:34;;;;;;;3.93;2.20;;;;;;;;;;5072908;28;20680;-87
2023/08/07 07:56:02;;;;;;;3.50;1.90;;;;;;;;;;5074034;28;20209;-86
2023/08/07 07:58:29;;;;;;;3.03;2.10;;;;;;;;;;5073421;28;20245;-86
2023/08/07 08:00:56;;;;;;;3.37;1.90;;;;;;;;;;5073626;28;20217;-86
2023/08/07 08:03:24;;;;;;;2.77;2.00;;;;;;;;;;5072901;28;20599;-86
2023/08/07 08:05:52;;;;;;;2.60;2.40;;;;;;;;;;5074257;28;20248;-86
2023/08/07 08:08:19;;;;;;;4.47;2.00;;;;;;;;;;5073423;28;20229;-87
2023/08/07 08:10:47;;;;;;;5.20;2.10;;;;;;;;;;5073837;28;20198;-85
2023/08/07 08:13:16;;;;;;;4.40;2.10;;;;;;;;;;5072473;28;20251;-86
2023/08/07 08:15:43;;;;;;;4.87;2.10;;;;;;;;;;5073688;28;20220;-86
2023/08/07 08:18:10;;;;;;;4.47;2.50;;;;;;;;;;5074476;28;20287;-86
2023/08/07 08:20:37;;;;;;;3.00;1.93;;;;;;;;;;5075905;28;20725;-87
2023/08/07 08:23:04;;;;;;;4.03;2.20;;;;;;;;;;5075095;28;20233;-86
2023/08/07 08:25:32;;;;;;;7.17;2.50;;;;;;;;;;5076668;28;20221;-86
2023/08/07 08:27:59;;;;;;;6.50;2.47;;;;;;;;;;5076860;28;20241;-87
2023/08/07 08:30:28;;;;;;;2.27;1.97;;;;;;;;;;5076992;28;20216;-86
2023/08/07 08:32:55;;;;;;;2.63;1.93;;;;;;;;;;5076498;28;20233;-86
2023/08/07 08:35:22;;;;;;;2.10;1.67;;;;;;;;;;5076950;28;20221;-87
2023/08/07 08:37:49;;;;;;;3.33;1.93;;;;;;;;;;5076400;28;20237;-85
2023/08/07 08:40:19;;;;;;;1.93;1.83;;;;;;;;;;5079232;28;20201;-87
2023/08/07 08:42:46;;;;;;;6.53;2.50;;;;;;;;;;5077450;28;20227;-86
2023/08/07 08:45:14;;;;;;;3.17;2.30;;;;;;;;;;5075830;28;20229;-86
2023/08/07 08:47:45;;;;;;;3.27;2.40;;;;;;;;;;5077477;28;20240;-86
2023/08/07 08:50:14;;;;;;;2.47;1.97;;;;;;;;;;5078128;28;20216;-86
2023/08/07 08:52:43;;;;;;;5.90;1.80;;;;;;;;;;5078218;28;20722;-87
2023/08/07 08:55:10;;;;;;;4.30;2.20;;;;;;;;;;5078254;28;20241;-86
2023/08/07 08:57:38;;;;;;;2.10;1.97;;;;;;;;;;5077799;28;20316;-87
2023/08/07 09:00:15;;;;;;;6.07;2.33;;;;;;;;;;5077260;28;20213;-87
2023/08/07 09:02:43;;;;;;;2.97;1.90;;;;;;;;;;5077269;28;20248;-86
2023/08/07 09:05:10;;;;;;;5.40;2.20;;;;;;;;;;5077669;28;20567;-85
2023/08/07 09:07:38;;;;;;;4.70;2.77;;;;;;;;;;5077468;28;20237;-87
2023/08/07 09:10:09;;;;;;;3.47;2.20;;;;;;;;;;5076976;28;20201;-87
2023/08/07 09:12:40;;;;;;;3.93;2.30;;;;;;;;;;5076941;28;20233;-86
2023/08/07 09:15:08;;;;;;;4.50;2.30;;;;;;;;;;5077590;28;20228;-86
2023/08/07 09:17:38;;;;;;;1.73;1.63;;;;;;;;;;5077686;28;20809;-87
2023/08/07 09:20:10;;;;;;;7.57;2.07;;;;;;;;;;5077653;28;20209;-86
2023/08/07 09:22:38;;;;;;;4.03;2.40;;;;;;;;;;5076695;28;20327;-85
2023/08/07 09:25:05;;;;;;;5.97;2.43;;;;;;;;;;5077901;28;20208;-87
2023/08/07 09:27:33;;;;;;;3.03;2.17;;;;;;;;;;5076603;28;20232;-85
2023/08/07 09:30:00;;;;;;;8.73;2.50;;;;;;;;;;5076491;28;20210;-84
2023/08/07 09:32:28;;;;;;;3.53;2.83;;;;;;;;;;5075115;28;20229;-84
2023/08/07 09:34:55;;;;;;;6.17;2.67;;;;;;;;;;5076032;28;20227;-86
2023/08/07 09:37:24;;;;;;;2.77;2.27;;;;;;;;;;5074717;28;20237;-85
2023/08/07 09:39:53;;;;;;;3.47;2.13;;;;;;;;;;5076240;28;20675;-86
2023/08/07 09:42:20;;;;;;;2.70;1.77;;;;;;;;;;5075758;28;20255;-85
2023/08/07 09:44:48;;;;;;;4.27;2.20;;;;;;;;;;5071727;28;20229;-86
2023/08/07 09:47:16;;;;;;;2.53;1.97;;;;;;;;;;5072434;28;20330;-86
2023/08/07 09:49:43;;;;;;;2.87;2.20;;;;;;;;;;5070898;28;20219;-86
2023/08/07 09:52:11;;;;;;;3.47;2.20;;;;;;;;;;5075905;28;20264;-87
2023/08/07 09:54:39;;;;;;;3.20;2.40;;;;;;;;;;5076482;28;20233;-87
2023/08/07 09:57:07;;;;;;;2.43;2.00;;;;;;;;;;5075442;28;20229;-86
2023/08/07 09:59:35;;;;;;;3.27;2.00;;;;;;;;;;5076824;28;20223;-86
2023/08/07 10:02:02;;;;;;;3.33;2.50;;;;;;;;;;5075462;28;20245;-85
2023/08/07 10:04:30;;;;;;;3.80;2.20;;;;;;;;;;5075967;28;20233;-86
2023/08/07 10:06:57;;;;;;;3.70;2.40;;;;;;;;;;5075091;28;20233;-86
2023/08/07 10:09:25;;;;;;;2.50;2.10;;;;;;;;;;5076207;28;20210;-86
2023/08/07 10:11:53;;;;;;;5.67;2.10;;;;;;;;;;5071315;28;20240;-86
2023/08/07 10:14:20;;;;;;;3.10;2.10;;;;;;;;;;5074314;28;20233;-86
2023/08/07 10:16:47;;;;;;;3.67;2.30;;;;;;;;;;5068696;28;20240;-85
2023/08/07 10:19:15;;;;;;;6.23;2.10;;;;;;;;;;5066572;28;20216;-86
2023/08/07 10:21:42;;;;;;;2.87;2.30;;;;;;;;;;5067717;28;20248;-86
2023/08/07 10:24:10;;;;;;;3.33;2.20;;;;;;;;;;5071517;28;20282;-85
2023/08/07 10:26:39;;;;;;;4.23;2.30;;;;;;;;;;5068867;28;20714;-86
2023/08/07 10:29:08;;;;;;;3.87;2.10;;;;;;;;;;5073728;28;20212;-85
2023/08/07 10:31:36;;;;;;;2.87;2.03;;;;;;;;;;5066565;28;20734;-86
2023/08/07 10:34:03;;;;;;;4.93;2.30;;;;;;;;;;5073994;28;20217;-85
2023/08/07 10:36:33;;;;;;;5.50;2.27;;;;;;;;;;5072417;28;20239;-84
2023/08/07 10:39:07;;;;;;;3.13;1.93;;;;;;;;;;5073434;28;20209;-85
2023/08/07 10:41:39;;;;;;;3.70;2.17;;;;;;;;;;5071317;28;20295;-85
2023/08/07 10:44:18;;;;;;;2.80;2.20;;;;;;;;;;5064733;28;20222;-85
2023/08/07 10:46:49;;;;;;;3.90;2.30;;;;;;;;;;5073495;28;20237;-85
2023/08/07 10:49:32;;;;;;;2.97;2.30;;;;;;;;;;5065457;28;20205;-84
2023/08/07 10:51:59;;;;;;;3.30;1.90;;;;;;;;;;5071166;28;20248;-86
2023/08/07 10:54:27;;;;;;;3.63;2.33;;;;;;;;;;5065394;28;20251;-87
2023/08/07 10:57:01;;;;;;;3.17;1.97;;;;;;;;;;5064440;28;20244;-86
2023/08/07 10:59:31;;;;;;;5.23;2.30;;;;;;;;;;5068542;28;20654;-85
2023/08/07 11:02:00;;;;;;;2.10;2.00;;;;;;;;;;5072738;28;20593;-85
2023/08/07 11:04:28;;;;;;;4.23;2.00;;;;;;;;;;5064388;28;20311;-84
2023/08/07 11:06:55;;;;;;;3.23;2.20;;;;;;;;;;5072269;28;20232;-85
2023/08/07 11:09:22;;;;;;;3.60;2.07;;;;;;;;;;5063065;28;20579;-86
2023/08/07 11:11:50;;;;;;;2.93;2.13;;;;;;;;;;5067707;28;20233;-85
2023/08/07 11:14:17;;;;;;;4.17;2.23;;;;;;;;;;5064057;28;20229;-85
2023/08/07 11:16:47;;;;;;;4.00;2.17;;;;;;;;;;5067728;28;20233;-86
2023/08/07 11:19:15;;;;;;;2.87;2.10;;;;;;;;;;5065351;28;20206;-86
2023/08/07 11:21:42;;;;;;;2.73;2.20;;;;;;;;;;5062713;28;20238;-86
2023/08/07 11:24:10;;;;;;;3.40;2.33;;;;;;;;;;5073722;28;20256;-86
2023/08/07 11:26:37;;;;;;;4.60;2.40;;;;;;;;;;5073563;28;20257;-86
2023/08/07 11:29:04;;;;;;;4.60;2.30;;;;;;;;;;5074388;28;20564;-86
2023/08/07 11:31:31;;;;;;;2.33;2.10;;;;;;;;;;5065013;28;20239;-86
2023/08/07 11:34:00;;;;;;;2.47;1.90;;;;;;;;;;5073521;28;20713;-87
2023/08/07 11:36:27;;;;;;;5.23;2.40;;;;;;;;;;5061568;28;20210;-87
2023/08/07 11:38:54;;;;;;;3.17;2.00;;;;;;;;;;5068908;28;20579;-87
2023/08/07 11:41:21;;;;;;;3.60;2.20;;;;;;;;;;5073199;28;20495;-87
2023/08/07 11:43:48;;;;;;;5.47;2.13;;;;;;;;;;5063280;28;20232;-87
2023/08/07 11:46:16;;;;;;;4.87;2.27;;;;;;;;;;5071116;28;20575;-87
2023/08/07 11:48:44;;;;;;;4.33;2.20;;;;;;;;;;5060052;28;20213;-87
2023/08/07 11:51:12;;;;;;;4.30;2.00;;;;;;;;;;5061446;28;20205;-87
2023/08/07 11:53:41;;;;;;;2.37;2.17;;;;;;;;;;5067482;28;20219;-86
2023/08/07 11:56:09;;;;;;;7.53;2.37;;;;;;;;;;5068224;28;20216;-85
2023/08/07 11:58:37;;;;;;;2.13;2.03;;;;;;;;;;5077740;28;20231;-86
2023/08/07 12:01:07;;;;;;;3.13;2.20;;;;;;;;;;5069463;28;20210;-85
2023/08/07 12:03:38;;;;;;;2.67;2.20;;;;;;;;;;5065068;28;20304;-85
2023/08/07 12:06:06;;;;;;;4.77;2.53;;;;;;;;;;5072982;28;20288;-87
2023/08/07 12:08:35;;;;;;;4.67;2.33;;;;;;;;;;5074875;28;20217;-86
2023/08/07 12:11:03;;;;;;;2.60;1.90;;;;;;;;;;5068993;28;20214;-84
2023/08/07 12:13:31;;;;;;;2.90;2.30;;;;;;;;;;5064890;28;20287;-84
2023/08/07 12:15:58;;;;;;;3.73;2.77;;;;;;;;;;5064701;28;20217;-84
2023/08/07 12:18:27;;;;;;;4.87;2.40;;;;;;;;;;5073703;28;20237;-85
2023/08/07 12:20:58;;;;;;;3.00;2.20;;;;;;;;;;5057574;28;20214;-85
2023/08/07 12:23:25;;;;;;;4.77;2.40;;;;;;;;;;5056610;28;20237;-85
2023/08/07 12:25:53;;;;;;;5.77;2.17;;;;;;;;;;5071668;28;20213;-84
2023/08/07 12:28:21;;;;;;;5.70;2.23;;;;;;;;;;5075101;28;20244;-85
2023/08/07 12:30:48;;;;;;;3.43;2.47;;;;;;;;;;5068586;28;20197;-85
2023/08/07 12:33:15;;;;;;;8.10;2.50;;;;;;;;;;5068017;28;20577;-85
2023/08/07 12:35:43;;;;;;;5.43;2.30;;;;;;;;;;5077372;28;20221;-87
2023/08/07 12:38:10;;;;;;;6.80;3.20;;;;;;;;;;5076220;28;20240;-87
2023/08/07 12:40:37;;;;;;;4.27;2.40;;;;;;;;;;5077499;28;20667;-86
2023/08/07 12:43:06;;;;;;;3.43;2.43;;;;;;;;;;5076805;28;20239;-87
2023/08/07 12:45:34;;;;;;;3.10;1.70;;;;;;;;;;5073234;28;20237;-88
2023/08/07 12:48:01;;;;;;;5.77;2.60;;;;;;;;;;5066806;28;20291;-87
2023/08/07 12:50:29;;;;;;;3.10;2.07;;;;;;;;;;5075984;28;20242;-88
2023/08/07 12:52:56;;;;;;;5.03;2.30;;;;;;;;;;5064545;28;20237;-88
2023/08/07 12:55:24;;;;;;;4.03;2.63;;;;;;;;;;5078283;28;20245;-87
2023/08/07 12:57:51;;;;;;;3.80;3.10;;;;;;;;;;5065310;28;20261;-88
2023/08/07 13:00:20;;;;;;;4.83;2.40;;;;;;;;;;5068606;28;20206;-88
2023/08/07 13:02:47;;;;;;;4.07;2.27;;;;;;;;;;5072503;28;20243;-88
2023/08/07 13:05:16;;;;;;;4.27;2.13;;;;;;;;;;5069067;28;20210;-88
2023/08/07 13:07:44;;;;;;;4.23;2.10;;;;;;;;;;5057420;28;20218;-88
2023/08/07 13:10:11;;;;;;;4.27;2.40;;;;;;;;;;5070791;28;20210;-87
2023/08/07 13:12:39;;;;;;;4.23;2.30;;;;;;;;;;5071584;28;20241;-89
2023/08/07 13:15:08;;;;;;;3.07;1.70;;;;;;;;;;5069886;28;20230;-89
2023/08/07 13:17:36;;;;;;;4.70;2.20;;;;;;;;;;5067894;28;20264;-87
2023/08/07 13:20:07;;;;;;;4.53;2.47;;;;;;;;;;5075691;28;20872;-87
2023/08/07 13:22:34;;;;;;;4.50;2.10;;;;;;;;;;5078389;28;20639;-87
2023/08/07 13:25:03;;;;;;;2.93;2.37;;;;;;;;;;5062833;28;20230;-88
2023/08/07 13:27:31;;;;;;;3.10;2.27;;;;;;;;;;5068717;28;20229;-86
2023/08/07 13:29:58;;;;;;;2.07;1.87;;;;;;;;;;5069181;28;20209;-86
2023/08/07 13:32:26;;;;;;;2.97;2.10;;;;;;;;;;5076466;28;20232;-87
2023/08/07 13:34:54;;;;;;;4.27;2.00;;;;;;;;;;5078798;28;20225;-88
2023/08/07 13:37:21;;;;;;;3.50;2.10;;;;;;;;;;5070926;28;20485;-87
2023/08/07 13:39:51;;;;;;;3.20;1.80;;;;;;;;;;5077558;28;20213;-86
2023/08/07 13:42:18;;;;;;;3.40;2.37;;;;;;;;;;5077775;28;20236;-88
2023/08/07 13:44:46;;;;;;;2.03;1.83;;;;;;;;;;5077069;28;20711;-88
2023/08/07 13:47:13;;;;;;;3.43;2.10;;;;;;;;;;5076843;28;20604;-88
2023/08/07 13:49:40;;;;;;;3.37;2.30;;;;;;;;;;5079112;28;20224;-87
2023/08/07 13:52:09;;;;;;;3.40;2.00;;;;;;;;;;5078524;28;20749;-87
2023/08/07 13:54:36;;;;;;;3.37;2.17;;;;;;;;;;5076747;28;20225;-86
2023/08/07 13:57:03;;;;;;;2.50;2.30;;;;;;;;;;5076310;28;20228;-87
2023/08/07 13:59:31;;;;;;;1.97;1.60;;;;;;;;;;5075920;28;20205;-86
2023/08/07 14:01:59;;;;;;;5.07;2.00;;;;;;;;;;5075727;28;20698;-86
2023/08/07 14:04:26;;;;;;;4.50;1.97;;;;;;;;;;5075567;28;20229;-86
2023/08/07 14:06:53;;;;;;;3.23;1.83;;;;;;;;;;5075818;28;20279;-86
2023/08/07 14:09:22;;;;;;;2.07;1.87;;;;;;;;;;5075549;28;20189;-87
2023/08/07 14:11:49;;;;;;;3.53;1.93;;;;;;;;;;5070846;28;20222;-87
2023/08/07 14:14:16;;;;;;;3.20;1.67;;;;;;;;;;5056127;28;20226;-87
2023/08/07 14:16:44;;;;;;;1.70;1.60;;;;;;;;;;5074723;28;20233;-87
2023/08/07 14:19:11;;;;;;;2.70;1.83;;;;;;;;;;5075009;28;20205;-87
2023/08/07 14:21:38;;;;;;;3.07;1.70;;;;;;;;;;5061839;28;20226;-87
2023/08/07 14:24:06;;;;;;;1.87;1.60;;;;;;;;;;5071206;28;20229;-86
2023/08/07 14:26:35;;;;;;;5.10;1.70;;;;;;;;;;5071863;28;20228;-87
2023/08/07 14:29:02;;;;;;;2.33;1.50;;;;;;;;;;5067786;28;20213;-86
2023/08/07 14:31:29;;;;;;;1.90;1.40;;;;;;;;;;5068733;28;20232;-85
2023/08/07 14:33:56;;;;;;;2.37;1.60;;;;;;;;;;5070433;28;20225;-87
2023/08/07 14:36:23;;;;;;;2.67;1.40;;;;;;;;;;5057689;28;20297;-88
2023/08/07 14:38:50;;;;;;;2.73;1.53;;;;;;;;;;5069674;28;20201;-86
2023/08/07 14:41:18;;;;;;;2.30;1.47;;;;;;;;;;5078595;28;20202;-87
2023/08/07 14:43:47;;;;;;;2.40;1.73;;;;;;;;;;5075950;28;20237;-84
2023/08/07 14:46:14;;;;;;;3.33;1.90;;;;;;;;;;5080656;28;20205;-86